Time;durP1;ratioP1;P1;durP2;ratioP2;P2;SDS_P1;SDS_P2;PMS_P1;PMS_P2;Temp;Humidity;BMP_temperature;BMP_pressure;BME280_temperature;BME280_humidity;BME280_pressure;Samples;Min_cycle;Max_cycle;Signal;HPM_P1;HPM_P2
2023/10/17 00:02:03;;;;;;;2.58;2.10;;;;;;;;;;5036882;28;20037;-72
2023/10/17 00:04:32;;;;;;;2.40;2.10;;;;;;;;;;5029901;28;20048;-73
2023/10/17 00:06:58;;;;;;;3.55;2.30;;;;;;;;;;5037251;28;20112;-72
2023/10/17 00:09:25;;;;;;;2.05;1.73;;;;;;;;;;5025644;28;20040;-73
2023/10/17 00:14:17;;;;;;;3.63;2.63;;;;;;;;;;5040200;28;20029;-73
2023/10/17 00:16:43;;;;;;;4.53;2.90;;;;;;;;;;5033292;28;20122;-72
2023/10/17 00:19:15;;;;;;;3.05;2.33;;;;;;;;;;5038118;28;20033;-73
2023/10/17 00:21:40;;;;;;;3.50;2.42;;;;;;;;;;5037972;28;20029;-73
2023/10/17 00:24:09;;;;;;;4.28;2.47;;;;;;;;;;5012277;28;20031;-73
2023/10/17 00:26:39;;;;;;;2.72;2.08;;;;;;;;;;5037370;28;20091;-73
2023/10/17 00:29:05;;;;;;;2.25;2.00;;;;;;;;;;5039045;28;20032;-73
2023/10/17 00:31:36;;;;;;;2.28;1.95;;;;;;;;;;5037377;28;20041;-73
2023/10/17 00:34:12;;;;;;;2.90;2.55;;;;;;;;;;5021095;28;20063;-73
2023/10/17 00:36:47;;;;;;;3.75;2.45;;;;;;;;;;4927484;28;20041;-73
2023/10/17 00:39:16;;;;;;;2.25;1.58;;;;;;;;;;5038670;28;20059;-73
2023/10/17 00:41:52;;;;;;;2.60;2.40;;;;;;;;;;5021306;28;20112;-73
2023/10/17 00:44:24;;;;;;;5.00;2.63;;;;;;;;;;5035112;28;20046;-73
2023/10/17 00:46:50;;;;;;;2.42;1.30;;;;;;;;;;5023641;28;20036;-73
2023/10/17 00:49:15;;;;;;;4.00;2.85;;;;;;;;;;5038967;28;20041;-73
2023/10/17 00:51:41;;;;;;;2.33;1.88;;;;;;;;;;5036622;28;20048;-73
2023/10/17 00:54:10;;;;;;;6.38;2.53;;;;;;;;;;5037757;28;20052;-73
2023/10/17 00:56:37;;;;;;;3.88;2.65;;;;;;;;;;5038700;28;20055;-73
2023/10/17 00:59:07;;;;;;;2.15;1.95;;;;;;;;;;5040342;28;20132;-72
2023/10/17 01:01:33;;;;;;;1.13;1.08;;;;;;;;;;4925552;28;20857;-73
2023/10/17 01:03:58;;;;;;;5.40;3.25;;;;;;;;;;5038940;28;20137;-72
2023/10/17 01:08:57;;;;;;;3.35;1.60;;;;;;;;;;5041224;28;20095;-71
2023/10/17 01:11:27;;;;;;;3.95;2.03;;;;;;;;;;5034613;28;20057;-72
2023/10/17 01:13:53;;;;;;;4.97;2.60;;;;;;;;;;5023197;28;20120;-72
2023/10/17 01:16:20;;;;;;;2.28;2.03;;;;;;;;;;5020522;28;20119;-72
2023/10/17 01:18:46;;;;;;;2.55;2.30;;;;;;;;;;5042199;28;20090;-72
2023/10/17 01:21:18;;;;;;;4.40;2.55;;;;;;;;;;5021643;28;20033;-72
2023/10/17 01:23:47;;;;;;;4.80;2.92;;;;;;;;;;5037105;28;20059;-72
2023/10/17 01:26:14;;;;;;;5.75;3.72;;;;;;;;;;5024661;28;20537;-72
2023/10/17 01:28:47;;;;;;;4.40;3.15;;;;;;;;;;5029984;28;20041;-72
2023/10/17 01:31:22;;;;;;;4.18;3.28;;;;;;;;;;5039231;28;20389;-72
2023/10/17 01:33:51;;;;;;;2.88;2.47;;;;;;;;;;5036887;28;20461;-72
2023/10/17 01:36:17;;;;;;;3.58;2.85;;;;;;;;;;5037738;28;20150;-72
2023/10/17 01:38:43;;;;;;;5.45;3.47;;;;;;;;;;5025082;28;20473;-72
2023/10/17 01:41:12;;;;;;;3.83;3.38;;;;;;;;;;5032320;28;20041;-72
2023/10/17 01:43:42;;;;;;;3.75;2.90;;;;;;;;;;5036075;28;20033;-72
2023/10/17 01:46:14;;;;;;;6.38;2.78;;;;;;;;;;5033874;28;20037;-72
2023/10/17 01:48:40;;;;;;;4.85;2.70;;;;;;;;;;5036157;28;20505;-72
2023/10/17 01:51:06;;;;;;;4.03;3.10;;;;;;;;;;5026291;28;20128;-73
2023/10/17 01:53:38;;;;;;;4.35;3.03;;;;;;;;;;5026793;28;20155;-72
2023/10/17 01:56:13;;;;;;;4.40;3.05;;;;;;;;;;5021712;28;20041;-73
2023/10/17 01:58:49;;;;;;;4.03;3.20;;;;;;;;;;5033976;28;20242;-72
2023/10/17 02:01:24;;;;;;;4.30;2.35;;;;;;;;;;5036226;28;20419;-72
2023/10/17 02:03:53;;;;;;;4.25;2.65;;;;;;;;;;5021897;28;20106;-72
2023/10/17 02:06:22;;;;;;;4.22;3.17;;;;;;;;;;5021860;28;20040;-72
2023/10/17 02:08:48;;;;;;;2.75;2.15;;;;;;;;;;5036428;28;20070;-72
2023/10/17 02:11:52;;;;;;;3.30;2.83;;;;;;;;;;5034922;28;20032;-72
2023/10/17 02:14:18;;;;;;;5.13;2.90;;;;;;;;;;4923730;28;20128;-72
2023/10/17 02:17:06;;;;;;;3.60;2.83;;;;;;;;;;5035399;28;20493;-71
2023/10/17 02:19:32;;;;;;;3.90;2.50;;;;;;;;;;5033255;28;20389;-72
2023/10/17 02:22:01;;;;;;;2.95;2.30;;;;;;;;;;5036883;28;20044;-72
2023/10/17 02:24:29;;;;;;;4.60;3.13;;;;;;;;;;5022051;28;20385;-73
2023/10/17 02:27:00;;;;;;;4.20;2.85;;;;;;;;;;5017031;28;20040;-72
2023/10/17 02:29:26;;;;;;;;;;;;;;;;;;5039206;28;20551;-72
2023/10/17 02:31:55;;;;;;;2.33;1.77;;;;;;;;;;5033711;28;20440;-72
2023/10/17 02:34:22;;;;;;;2.40;2.20;;;;;;;;;;5033874;28;20537;-73
2023/10/17 02:36:51;;;;;;;4.28;2.92;;;;;;;;;;5029546;28;20513;-73
2023/10/17 02:39:16;;;;;;;4.57;3.05;;;;;;;;;;5033384;28;20479;-72
2023/10/17 02:41:57;;;;;;;3.85;3.03;;;;;;;;;;5032473;28;20079;-72
2023/10/17 02:44:23;;;;;;;5.63;2.97;;;;;;;;;;5040561;28;20548;-72
2023/10/17 02:46:49;;;;;;;3.42;2.40;;;;;;;;;;5019755;28;20044;-72
2023/10/17 02:49:16;;;;;;;4.78;3.22;;;;;;;;;;5033422;28;20306;-72
2023/10/17 02:51:45;;;;;;;3.50;2.95;;;;;;;;;;4926946;28;20066;-72
2023/10/17 02:54:14;;;;;;;6.43;3.08;;;;;;;;;;5017682;28;20029;-72
2023/10/17 02:56:46;;;;;;;4.97;3.00;;;;;;;;;;5034575;28;20025;-72
2023/10/17 02:59:13;;;;;;;5.53;3.58;;;;;;;;;;5035869;28;20037;-72
2023/10/17 03:01:40;;;;;;;4.85;3.05;;;;;;;;;;5035817;28;20029;-72
2023/10/17 03:04:08;;;;;;;4.50;3.20;;;;;;;;;;5005913;28;20126;-72
2023/10/17 03:06:38;;;;;;;5.22;3.10;;;;;;;;;;5035181;28;20041;-72
2023/10/17 03:09:33;;;;;;;5.63;2.75;;;;;;;;;;5035488;28;20028;-72
2023/10/17 03:17:11;;;;;;;5.20;3.00;;;;;;;;;;5033725;28;20385;-72
2023/10/17 03:19:38;;;;;;;6.40;3.60;;;;;;;;;;5035771;28;20037;-72
2023/10/17 03:22:24;;;;;;;5.32;3.45;;;;;;;;;;5018063;28;20079;-72
2023/10/17 03:25:18;;;;;;;6.20;3.40;;;;;;;;;;5021456;28;20099;-72
2023/10/17 03:27:49;;;;;;;6.85;3.22;;;;;;;;;;5032216;28;20028;-72
2023/10/17 03:30:19;;;;;;;5.60;3.22;;;;;;;;;;5030453;28;20436;-72
2023/10/17 03:35:27;;;;;;;7.05;4.20;;;;;;;;;;5020061;28;20065;-72
2023/10/17 03:37:55;;;;;;;9.50;4.40;;;;;;;;;;5033378;28;20037;-73
2023/10/17 03:40:30;;;;;;;9.38;4.47;;;;;;;;;;5035789;28;20029;-73
2023/10/17 03:43:21;;;;;;;7.55;4.35;;;;;;;;;;5017828;28;20521;-73
2023/10/17 03:45:58;;;;;;;7.35;3.85;;;;;;;;;;5021494;28;20044;-72
2023/10/17 03:48:28;;;;;;;8.15;3.50;;;;;;;;;;5031443;28;20040;-72
2023/10/17 03:53:29;;;;;;;7.80;4.28;;;;;;;;;;5033325;28;20036;-72
2023/10/17 03:55:55;;;;;;;6.28;3.38;;;;;;;;;;5021183;28;20033;-72
2023/10/17 04:00:54;;;;;;;6.95;3.58;;;;;;;;;;5035377;28;20618;-72
2023/10/17 04:03:26;;;;;;;4.65;3.30;;;;;;;;;;5036181;28;20060;-72
2023/10/17 04:08:40;;;;;;;9.32;4.22;;;;;;;;;;5019763;28;20046;-72
2023/10/17 04:11:25;;;;;;;5.43;3.90;;;;;;;;;;5034001;28;20087;-73
2023/10/17 04:13:53;;;;;;;4.95;3.50;;;;;;;;;;5031341;28;20501;-73
2023/10/17 04:16:27;;;;;;;5.97;3.90;;;;;;;;;;5035104;28;20409;-73
2023/10/17 04:18:55;;;;;;;6.18;3.95;;;;;;;;;;5022958;28;20037;-74
2023/10/17 04:21:29;;;;;;;5.65;3.55;;;;;;;;;;5035278;28;20037;-74
2023/10/17 04:23:55;;;;;;;5.82;3.65;;;;;;;;;;5022377;28;20267;-73
2023/10/17 04:26:34;;;;;;;6.50;3.55;;;;;;;;;;5040895;28;20069;-73
2023/10/17 04:29:13;;;;;;;7.07;4.28;;;;;;;;;;5023364;28;20064;-74
2023/10/17 04:31:39;;;;;;;7.07;4.43;;;;;;;;;;4939402;28;20042;-73
2023/10/17 04:34:09;;;;;;;5.88;4.40;;;;;;;;;;4944232;28;20577;-72
2023/10/17 04:36:38;;;;;;;5.53;4.13;;;;;;;;;;4941474;28;20035;-73
2023/10/17 04:39:13;;;;;;;8.13;4.70;;;;;;;;;;5002919;28;20040;-73
2023/10/17 04:42:05;;;;;;;8.32;5.43;;;;;;;;;;5037631;28;20071;-74
2023/10/17 04:44:34;;;;;;;;;;;;;;;;;;5014313;28;20112;-73
2023/10/17 04:49:27;;;;;;;6.70;4.38;;;;;;;;;;5039498;28;20171;-73
2023/10/17 04:52:02;;;;;;;8.20;4.20;;;;;;;;;;5042628;28;20120;-73
2023/10/17 04:57:18;;;;;;;5.10;2.97;;;;;;;;;;4937426;28;20112;-73
2023/10/17 05:02:35;;;;;;;5.90;3.20;;;;;;;;;;5039116;28;20051;-73
2023/10/17 06:18:31;;;;;;;5.97;4.07;;;;;;;;;;5034098;28;20443;-74
2023/10/17 06:26:46;;;;;;;6.32;3.88;;;;;;;;;;5037055;28;21883;-73
2023/10/17 06:34:19;;;;;;;5.55;3.90;;;;;;;;;;5034368;28;20863;-74
2023/10/17 06:36:49;;;;;;;6.15;3.80;;;;;;;;;;5035861;28;20111;-74
2023/10/17 06:39:18;;;;;;;5.55;3.85;;;;;;;;;;5003199;28;20665;-74
2023/10/17 06:41:45;;;;;;;6.82;4.32;;;;;;;;;;5020975;28;20493;-74
2023/10/17 06:44:16;;;;;;;7.97;5.00;;;;;;;;;;5022015;28;20733;-74
2023/10/17 06:46:56;;;;;;;5.72;3.55;;;;;;;;;;5034847;28;20045;-73
2023/10/17 06:54:41;;;;;;;8.13;5.47;;;;;;;;;;5011321;28;20066;-73
2023/10/17 06:57:19;;;;;;;8.05;5.15;;;;;;;;;;5041229;28;20036;-73
2023/10/17 06:59:46;;;;;;;10.57;5.75;;;;;;;;;;5031063;28;20397;-74
2023/10/17 07:05:09;;;;;;;9.20;4.80;;;;;;;;;;4972392;22;20039;-75
2023/10/17 07:07:45;;;;;;;8.90;5.18;;;;;;;;;;4954134;28;20476;-75
2023/10/17 07:10:24;;;;;;;10.45;5.97;;;;;;;;;;4937143;28;20034;-75
2023/10/17 07:13:27;;;;;;;10.45;5.40;;;;;;;;;;4956633;28;20541;-75
2023/10/17 07:15:53;;;;;;;8.77;4.47;;;;;;;;;;4977200;28;20048;-74
2023/10/17 07:21:15;;;;;;;9.60;5.70;;;;;;;;;;4921107;28;20058;-73
2023/10/17 07:23:45;;;;;;;12.73;5.82;;;;;;;;;;4919388;28;20410;-76
2023/10/17 07:26:58;;;;;;;10.10;5.47;;;;;;;;;;4900156;28;20455;-75
2023/10/17 07:28:59;;;;;;;9.32;5.80;;;;;;;;;;4905571;28;20412;-74
2023/10/17 07:31:25;;;;;;;11.00;5.43;;;;;;;;;;4921624;28;20046;-74
2023/10/17 07:36:36;;;;;;;10.18;5.97;;;;;;;;;;4951490;28;20521;-73
2023/10/17 07:39:07;;;;;;;10.07;5.97;;;;;;;;;;4913610;28;22144;-74
2023/10/17 07:41:36;;;;;;;7.70;4.65;;;;;;;;;;4929568;28;20058;-74
2023/10/17 07:44:09;;;;;;;8.35;5.22;;;;;;;;;;4953800;28;20389;-74
2023/10/17 07:46:34;;;;;;;9.65;5.50;;;;;;;;;;4921456;28;20044;-75
2023/10/17 07:49:06;;;;;;;12.18;6.65;;;;;;;;;;4917771;28;20063;-73
2023/10/17 07:51:32;;;;;;;9.30;5.93;;;;;;;;;;4910609;28;20418;-74
2023/10/17 07:53:58;;;;;;;12.27;6.50;;;;;;;;;;4922062;28;20842;-74
2023/10/17 07:56:25;;;;;;;12.60;7.07;;;;;;;;;;4949622;28;20097;-74
2023/10/17 07:58:57;;;;;;;11.18;6.80;;;;;;;;;;4929707;28;20586;-74
2023/10/17 08:01:32;;;;;;;10.85;6.15;;;;;;;;;;4919802;28;20511;-75
2023/10/17 08:04:13;;;;;;;14.57;6.65;;;;;;;;;;4917291;28;20075;-73
2023/10/17 08:06:39;;;;;;;15.00;7.22;;;;;;;;;;4927804;28;20408;-74
2023/10/17 08:09:16;;;;;;;11.60;6.72;;;;;;;;;;4921413;28;20047;-73
2023/10/17 08:11:42;;;;;;;12.30;7.28;;;;;;;;;;4923164;28;20550;-73
2023/10/17 08:14:11;;;;;;;15.05;7.15;;;;;;;;;;4912383;28;20507;-73
2023/10/17 08:16:42;;;;;;;15.52;7.32;;;;;;;;;;4900231;28;20041;-73
2023/10/17 08:20:00;;;;;;;13.13;7.13;;;;;;;;;;4896831;28;20039;-74
2023/10/17 08:22:17;;;;;;;13.73;7.30;;;;;;;;;;4951772;28;20479;-74
2023/10/17 08:24:45;;;;;;;9.70;5.80;;;;;;;;;;4930690;28;20442;-74
2023/10/17 08:27:13;;;;;;;13.80;7.70;;;;;;;;;;4963415;28;20096;-73
2023/10/17 08:30:24;;;;;;;15.73;8.30;;;;;;;;;;4975365;28;20039;-73
2023/10/17 08:32:39;;;;;;;15.00;8.18;;;;;;;;;;4936871;28;20518;-76
2023/10/17 08:35:17;;;;;;;16.13;8.40;;;;;;;;;;4963627;28;20074;-74
2023/10/17 08:37:43;;;;;;;14.32;8.90;;;;;;;;;;4990137;28;20023;-74
2023/10/17 08:43:06;;;;;;;9.85;6.22;;;;;;;;;;4924149;28;20132;-77
2023/10/17 08:45:37;;;;;;;5.65;4.22;;;;;;;;;;4917664;28;20044;-73
2023/10/17 08:48:05;;;;;;;13.63;7.38;;;;;;;;;;4891843;28;20060;-73
2023/10/17 08:50:37;;;;;;;13.98;7.78;;;;;;;;;;4917596;28;20747;-75
2023/10/17 08:53:06;;;;;;;15.68;8.82;;;;;;;;;;4917943;28;20054;-76
2023/10/17 08:55:32;;;;;;;14.43;8.88;;;;;;;;;;4922341;28;20047;-76
2023/10/17 08:57:59;;;;;;;15.45;8.60;;;;;;;;;;4918392;28;20672;-74
2023/10/17 09:01:11;;;;;;;15.55;7.57;;;;;;;;;;4901439;28;20128;-76
2023/10/17 09:03:37;;;;;;;16.25;8.45;;;;;;;;;;4905381;28;20117;-74
2023/10/17 09:08:55;;;;;;;14.93;8.30;;;;;;;;;;4922741;28;20044;-74
2023/10/17 09:12:01;;;;;;;16.33;8.30;;;;;;;;;;4907947;28;20062;-74
2023/10/17 09:14:29;;;;;;;13.73;7.95;;;;;;;;;;4916896;28;21536;-75
2023/10/17 09:19:51;;;;;;;12.80;7.40;;;;;;;;;;4913555;28;20106;-76
2023/10/17 09:22:36;;;;;;;20.58;9.38;;;;;;;;;;4915064;29;20818;-75
2023/10/17 09:25:15;;;;;;;16.23;7.88;;;;;;;;;;4928204;28;20067;-75
2023/10/17 09:27:41;;;;;;;15.98;8.35;;;;;;;;;;4941944;28;20066;-74
2023/10/17 09:30:10;;;;;;;17.27;9.18;;;;;;;;;;4914030;28;20048;-73
2023/10/17 09:32:38;;;;;;;21.38;9.48;;;;;;;;;;4974093;28;20452;-74
2023/10/17 09:35:11;;;;;;;18.52;10.55;;;;;;;;;;4920540;29;20050;-75
2023/10/17 09:37:41;;;;;;;19.23;10.10;;;;;;;;;;4917960;28;20063;-75
2023/10/17 09:40:14;;;;;;;18.63;10.45;;;;;;;;;;4922051;28;20042;-74
2023/10/17 09:42:44;;;;;;;19.42;10.32;;;;;;;;;;4932892;28;20047;-74
2023/10/17 09:45:16;;;;;;;17.73;9.95;;;;;;;;;;4936966;28;20130;-73
2023/10/17 09:47:47;;;;;;;15.10;8.68;;;;;;;;;;4908482;28;20047;-74
2023/10/17 09:50:16;;;;;;;15.57;9.33;;;;;;;;;;4920982;29;20065;-74
2023/10/17 09:52:42;;;;;;;14.57;8.55;;;;;;;;;;4916331;28;20295;-74
2023/10/17 09:55:13;;;;;;;13.80;7.88;;;;;;;;;;4929280;28;20123;-74
2023/10/17 09:57:43;;;;;;;13.18;7.60;;;;;;;;;;4915225;29;20047;-75
2023/10/17 10:00:23;;;;;;;11.82;7.28;;;;;;;;;;4958809;28;20037;-74
2023/10/17 10:02:52;;;;;;;14.93;7.15;;;;;;;;;;4942811;28;20051;-74
2023/10/17 10:05:19;;;;;;;10.85;6.95;;;;;;;;;;4931534;28;20043;-74
2023/10/17 10:07:44;;;;;;;13.75;7.63;;;;;;;;;;4937540;28;20067;-74
2023/10/17 10:10:21;;;;;;;10.82;6.85;;;;;;;;;;4918398;28;20506;-73
2023/10/17 10:12:57;;;;;;;14.57;6.85;;;;;;;;;;4919438;28;20534;-74
2023/10/17 10:15:53;;;;;;;12.25;6.38;;;;;;;;;;4919790;28;20039;-74
2023/10/17 10:18:52;;;;;;;10.60;6.30;;;;;;;;;;4905240;28;20049;-74
2023/10/17 10:21:18;;;;;;;11.02;5.35;;;;;;;;;;4881343;28;21059;-74
2023/10/17 10:23:45;;;;;;;7.38;5.18;;;;;;;;;;4927671;28;20118;-74
2023/10/17 10:26:19;;;;;;;11.23;6.35;;;;;;;;;;4924492;28;20046;-76
2023/10/17 10:28:48;;;;;;;8.45;5.68;;;;;;;;;;4923896;28;20049;-74
2023/10/17 10:31:22;;;;;;;8.30;5.55;;;;;;;;;;4921047;28;20059;-74
2023/10/17 10:33:58;;;;;;;8.43;5.63;;;;;;;;;;4925519;28;20043;-75
2023/10/17 10:36:24;;;;;;;9.10;5.40;;;;;;;;;;4928675;28;20031;-74
2023/10/17 10:38:54;;;;;;;7.80;5.22;;;;;;;;;;4935798;28;20403;-75
2023/10/17 10:41:22;;;;;;;8.77;5.40;;;;;;;;;;4904345;28;20041;-75
2023/10/17 10:43:57;;;;;;;7.75;5.10;;;;;;;;;;4918129;28;20089;-74
2023/10/17 10:46:23;;;;;;;4.78;3.40;;;;;;;;;;4927250;28;20149;-75
2023/10/17 10:48:53;;;;;;;7.60;5.28;;;;;;;;;;4940644;28;20039;-75
2023/10/17 10:51:21;;;;;;;7.47;4.15;;;;;;;;;;4904194;28;20031;-75
2023/10/17 10:53:54;;;;;;;6.18;3.97;;;;;;;;;;4913013;28;20451;-76
2023/10/17 10:56:25;;;;;;;8.15;3.95;;;;;;;;;;4924173;28;20042;-74
2023/10/17 10:58:53;;;;;;;5.40;3.63;;;;;;;;;;4931255;28;20121;-76
2023/10/17 11:01:20;;;;;;;5.15;3.28;;;;;;;;;;4929148;28;20053;-75
2023/10/17 11:03:47;;;;;;;3.00;2.40;;;;;;;;;;4921161;28;20134;-75
2023/10/17 11:06:13;;;;;;;6.65;3.58;;;;;;;;;;4917421;28;20062;-74
2023/10/17 11:08:43;;;;;;;5.95;3.92;;;;;;;;;;4989453;28;20134;-75
2023/10/17 11:11:10;;;;;;;4.28;3.47;;;;;;;;;;4905317;28;20043;-75
2023/10/17 11:13:57;;;;;;;6.63;3.30;;;;;;;;;;4963562;28;20035;-75
2023/10/17 11:16:27;;;;;;;5.75;4.20;;;;;;;;;;4938065;28;20039;-76
2023/10/17 11:18:53;;;;;;;10.60;6.67;;;;;;;;;;4912525;28;20037;-75
2023/10/17 11:21:20;;;;;;;8.90;6.55;;;;;;;;;;4927750;28;20078;-73
2023/10/17 11:23:52;;;;;;;9.93;6.30;;;;;;;;;;4921986;28;20045;-74
2023/10/17 11:26:25;;;;;;;13.25;6.82;;;;;;;;;;4920760;28;20040;-74
2023/10/17 11:28:54;;;;;;;9.05;6.53;;;;;;;;;;4915982;28;20040;-74
2023/10/17 11:31:22;;;;;;;10.82;5.82;;;;;;;;;;4943299;28;20054;-74
2023/10/17 11:33:55;;;;;;;10.63;6.40;;;;;;;;;;4969644;28;20577;-75
2023/10/17 11:36:23;;;;;;;7.35;4.85;;;;;;;;;;4920327;28;20043;-74
2023/10/17 11:38:58;;;;;;;7.78;5.22;;;;;;;;;;4902322;28;20081;-74
2023/10/17 11:41:39;;;;;;;5.93;3.67;;;;;;;;;;4906757;28;20090;-74
2023/10/17 11:44:09;;;;;;;3.65;2.85;;;;;;;;;;4940266;28;20419;-75
2023/10/17 11:46:35;;;;;;;3.90;2.53;;;;;;;;;;4957470;28;20041;-74
2023/10/17 11:52:04;;;;;;;3.72;2.80;;;;;;;;;;4914384;28;20063;-77
2023/10/17 11:54:30;;;;;;;3.47;2.70;;;;;;;;;;4919853;28;20047;-76
2023/10/17 11:57:08;;;;;;;4.63;2.88;;;;;;;;;;4931232;28;20051;-74
2023/10/17 11:59:34;;;;;;;3.25;2.50;;;;;;;;;;4927924;28;20027;-76
2023/10/17 12:02:03;;;;;;;3.13;2.80;;;;;;;;;;4926685;28;20089;-75
2023/10/17 12:04:29;;;;;;;5.43;2.88;;;;;;;;;;4916592;28;20110;-74
2023/10/17 12:06:54;;;;;;;4.15;3.15;;;;;;;;;;4977009;28;20033;-75
2023/10/17 12:09:22;;;;;;;4.55;3.13;;;;;;;;;;4944200;28;20039;-75
2023/10/17 12:11:53;;;;;;;4.97;3.30;;;;;;;;;;4938187;28;20514;-74
2023/10/17 12:14:22;;;;;;;4.28;2.70;;;;;;;;;;4989415;28;20041;-75
2023/10/17 12:16:58;;;;;;;2.97;2.65;;;;;;;;;;4946226;28;20342;-74
2023/10/17 12:19:28;;;;;;;5.07;2.65;;;;;;;;;;4945192;28;20034;-74
2023/10/17 12:21:54;;;;;;;4.85;3.00;;;;;;;;;;4940775;28;20041;-74
2023/10/17 12:24:24;;;;;;;6.72;3.33;;;;;;;;;;4944877;28;20059;-73
2023/10/17 12:26:50;;;;;;;4.90;3.72;;;;;;;;;;4929855;28;20043;-74
2023/10/17 12:29:17;;;;;;;5.50;3.50;;;;;;;;;;4921433;28;21768;-74
2023/10/17 12:31:43;;;;;;;5.20;3.42;;;;;;;;;;4927845;28;20438;-75
2023/10/17 12:34:09;;;;;;;3.85;3.03;;;;;;;;;;4922816;28;20224;-74
2023/10/17 12:36:35;;;;;;;4.20;3.05;;;;;;;;;;4925309;28;20038;-75
2023/10/17 12:39:02;;;;;;;3.65;3.03;;;;;;;;;;4917208;28;20158;-75
2023/10/17 12:41:29;;;;;;;4.68;3.08;;;;;;;;;;4921590;28;20065;-75
2023/10/17 12:43:55;;;;;;;4.18;2.65;;;;;;;;;;4918372;28;20044;-75
2023/10/17 12:46:20;;;;;;;4.25;3.42;;;;;;;;;;4925178;28;20062;-74
2023/10/17 12:48:46;;;;;;;4.45;3.00;;;;;;;;;;4920427;28;20043;-75
2023/10/17 12:51:12;;;;;;;3.90;2.60;;;;;;;;;;4933681;28;20040;-74
2023/10/17 12:53:38;;;;;;;2.97;2.67;;;;;;;;;;4917726;28;20642;-74
2023/10/17 12:56:05;;;;;;;4.63;3.50;;;;;;;;;;4931128;28;20495;-75
2023/10/17 12:58:32;;;;;;;4.63;3.08;;;;;;;;;;4923674;28;20068;-74
2023/10/17 13:01:00;;;;;;;5.28;3.13;;;;;;;;;;4912180;28;20616;-75
2023/10/17 13:03:27;;;;;;;4.45;2.45;;;;;;;;;;4924492;28;20081;-75
2023/10/17 13:05:53;;;;;;;4.38;2.92;;;;;;;;;;4920244;28;20151;-74
2023/10/17 13:08:18;;;;;;;2.88;2.50;;;;;;;;;;4933529;28;20047;-75
2023/10/17 13:10:44;;;;;;;4.28;2.80;;;;;;;;;;4929240;28;20059;-75
2023/10/17 13:13:11;;;;;;;4.40;3.03;;;;;;;;;;4935316;28;20078;-75
2023/10/17 13:15:37;;;;;;;3.95;2.83;;;;;;;;;;4938033;28;20121;-74
2023/10/17 13:18:06;;;;;;;4.90;3.40;;;;;;;;;;4919009;28;20055;-75
2023/10/17 13:20:32;;;;;;;4.82;2.92;;;;;;;;;;4923719;28;20036;-74
2023/10/17 13:23:04;;;;;;;6.18;3.30;;;;;;;;;;4923011;28;20050;-75
2023/10/17 13:25:36;;;;;;;3.38;2.55;;;;;;;;;;4940703;28;20046;-75
2023/10/17 13:28:03;;;;;;;3.53;2.58;;;;;;;;;;4934315;28;20045;-75
2023/10/17 13:30:28;;;;;;;3.65;2.70;;;;;;;;;;4938021;28;20059;-75
2023/10/17 13:32:54;;;;;;;5.25;3.42;;;;;;;;;;4925250;28;20052;-75
2023/10/17 13:35:23;;;;;;;5.88;4.40;;;;;;;;;;4916215;28;20046;-74
2023/10/17 13:37:52;;;;;;;2.95;2.58;;;;;;;;;;4925262;28;20043;-75
2023/10/17 13:40:22;;;;;;;7.53;4.00;;;;;;;;;;4906140;28;20515;-74
2023/10/17 13:42:55;;;;;;;8.27;4.68;;;;;;;;;;4958747;22;20045;-72
2023/10/17 13:45:21;;;;;;;6.65;4.20;;;;;;;;;;5034648;28;20037;-72
2023/10/17 13:47:50;;;;;;;9.02;4.68;;;;;;;;;;5037471;28;20037;-72
2023/10/17 13:50:18;;;;;;;7.28;4.78;;;;;;;;;;5039203;28;20037;-72
2023/10/17 13:52:46;;;;;;;8.32;4.97;;;;;;;;;;4939975;28;20119;-72
2023/10/17 13:55:14;;;;;;;7.00;4.88;;;;;;;;;;4958833;28;20437;-72
2023/10/17 13:57:46;;;;;;;7.22;4.68;;;;;;;;;;4954204;28;20035;-72
2023/10/17 14:00:19;;;;;;;7.18;4.80;;;;;;;;;;4973349;28;20035;-72
2023/10/17 14:02:49;;;;;;;7.03;4.70;;;;;;;;;;4932454;28;20043;-72
2023/10/17 14:05:16;;;;;;;8.65;4.43;;;;;;;;;;4934426;28;20564;-72
2023/10/17 14:07:43;;;;;;;6.45;4.53;;;;;;;;;;4962153;28;20042;-72
2023/10/17 14:10:11;;;;;;;7.78;4.25;;;;;;;;;;4969680;28;20091;-72
2023/10/17 14:12:40;;;;;;;8.10;4.10;;;;;;;;;;4966909;28;20046;-72
2023/10/17 14:15:08;;;;;;;6.93;3.60;;;;;;;;;;4963855;28;20149;-72
2023/10/17 14:17:35;;;;;;;7.72;4.05;;;;;;;;;;4961992;28;20042;-73
2023/10/17 14:20:38;;;;;;;7.82;3.90;;;;;;;;;;4977529;28;20133;-72
2023/10/17 14:23:16;;;;;;;4.95;3.65;;;;;;;;;;4971248;28;20091;-72
2023/10/17 14:28:26;;;;;;;5.53;3.67;;;;;;;;;;4932891;28;20091;-72
2023/10/17 14:30:51;;;;;;;4.45;3.25;;;;;;;;;;4967423;28;20062;-72
2023/10/17 14:33:17;;;;;;;7.07;3.47;;;;;;;;;;4959216;28;20488;-72
2023/10/17 14:35:43;;;;;;;4.47;3.03;;;;;;;;;;4969353;28;20066;-72
2023/10/17 14:38:10;;;;;;;4.28;2.70;;;;;;;;;;4952553;28;20472;-72
2023/10/17 14:40:37;;;;;;;4.05;2.60;;;;;;;;;;4948441;28;20043;-72
2023/10/17 14:43:06;;;;;;;5.95;2.92;;;;;;;;;;4960122;28;20100;-72
2023/10/17 14:45:32;;;;;;;2.67;2.33;;;;;;;;;;4976026;28;20063;-72
2023/10/17 14:47:59;;;;;;;2.80;1.98;;;;;;;;;;4961857;28;20716;-72
2023/10/17 14:50:26;;;;;;;2.65;2.03;;;;;;;;;;4952082;28;20030;-72
2023/10/17 14:52:53;;;;;;;3.88;2.30;;;;;;;;;;4965015;28;20050;-72
2023/10/17 14:55:23;;;;;;;6.78;2.50;;;;;;;;;;4951618;28;20047;-72
2023/10/17 14:57:49;;;;;;;3.17;2.70;;;;;;;;;;4964065;28;20195;-73
2023/10/17 15:00:15;;;;;;;5.22;2.42;;;;;;;;;;4961670;28;20123;-72
2023/10/17 15:02:44;;;;;;;3.10;2.03;;;;;;;;;;4949825;28;20042;-72
2023/10/17 15:05:11;;;;;;;2.15;1.77;;;;;;;;;;4960040;28;20487;-72
2023/10/17 15:07:38;;;;;;;3.50;2.50;;;;;;;;;;4949444;28;20533;-73
2023/10/17 15:10:11;;;;;;;3.13;2.00;;;;;;;;;;4960261;28;20053;-72
2023/10/17 15:12:38;;;;;;;3.17;2.58;;;;;;;;;;4961700;28;20469;-72
2023/10/17 15:15:04;;;;;;;3.67;2.13;;;;;;;;;;4976973;28;20066;-72
2023/10/17 15:17:31;;;;;;;4.55;2.47;;;;;;;;;;4953690;28;20046;-72
2023/10/17 15:19:57;;;;;;;5.68;2.42;;;;;;;;;;4948916;28;20043;-72
2023/10/17 15:22:22;;;;;;;8.75;2.65;;;;;;;;;;4951277;28;20039;-72
2023/10/17 15:24:49;;;;;;;3.53;2.75;;;;;;;;;;4958899;28;20122;-72
2023/10/17 15:27:14;;;;;;;4.88;3.17;;;;;;;;;;4954656;28;20047;-71
2023/10/17 15:29:40;;;;;;;3.65;3.00;;;;;;;;;;4959018;28;20491;-72
2023/10/17 15:32:05;;;;;;;3.92;2.90;;;;;;;;;;4963156;28;20422;-72
2023/10/17 15:34:34;;;;;;;2.85;2.50;;;;;;;;;;4967721;28;20030;-72
2023/10/17 15:37:00;;;;;;;3.65;3.10;;;;;;;;;;4916987;28;20062;-72
2023/10/17 15:39:29;;;;;;;4.13;2.10;;;;;;;;;;4961665;28;20514;-72
2023/10/17 15:41:55;;;;;;;4.40;3.00;;;;;;;;;;4978182;28;20046;-73
2023/10/17 15:44:21;;;;;;;3.13;2.33;;;;;;;;;;4951663;28;20042;-72
2023/10/17 15:46:48;;;;;;;4.00;3.20;;;;;;;;;;4952675;28;20134;-72
2023/10/17 15:49:14;;;;;;;2.33;2.08;;;;;;;;;;4959369;28;20472;-72
2023/10/17 15:51:39;;;;;;;4.43;2.45;;;;;;;;;;4946126;28;20038;-72
2023/10/17 15:54:06;;;;;;;3.13;2.47;;;;;;;;;;4967788;28;20039;-72
2023/10/17 15:56:33;;;;;;;2.42;1.73;;;;;;;;;;4957243;28;20595;-72
2023/10/17 15:58:58;;;;;;;5.55;3.58;;;;;;;;;;4974377;28;20099;-72
2023/10/17 16:01:24;;;;;;;5.05;2.67;;;;;;;;;;4963460;28;20039;-72
2023/10/17 16:03:50;;;;;;;5.50;2.90;;;;;;;;;;4961179;28;20039;-72
2023/10/17 16:06:17;;;;;;;6.03;3.60;;;;;;;;;;4954345;28;20758;-72
2023/10/17 16:08:45;;;;;;;5.05;4.13;;;;;;;;;;4973754;28;20123;-72
2023/10/17 16:11:10;;;;;;;5.65;3.80;;;;;;;;;;4961677;28;20042;-72
2023/10/17 16:13:38;;;;;;;5.20;4.00;;;;;;;;;;4965475;28;20042;-72
2023/10/17 16:16:06;;;;;;;6.15;3.92;;;;;;;;;;4945101;28;20513;-72
2023/10/17 16:18:33;;;;;;;4.97;3.13;;;;;;;;;;4925902;28;20254;-72
2023/10/17 16:20:59;;;;;;;5.22;3.25;;;;;;;;;;4945151;28;20035;-72
2023/10/17 16:23:25;;;;;;;6.60;3.85;;;;;;;;;;4935618;28;20043;-72
2023/10/17 16:25:52;;;;;;;4.07;2.83;;;;;;;;;;4953691;28;20042;-72
2023/10/17 16:28:17;;;;;;;4.68;3.20;;;;;;;;;;4951302;28;20031;-72
2023/10/17 16:30:43;;;;;;;3.22;2.92;;;;;;;;;;4944835;28;20046;-72
2023/10/17 16:33:11;;;;;;;4.68;3.58;;;;;;;;;;4958658;28;20053;-72
2023/10/17 16:35:37;;;;;;;4.07;3.20;;;;;;;;;;4964740;28;20923;-72
2023/10/17 16:38:05;;;;;;;3.15;2.20;;;;;;;;;;4961703;28;20047;-72
2023/10/17 16:40:31;;;;;;;3.17;2.30;;;;;;;;;;4964899;28;20526;-72
2023/10/17 16:42:57;;;;;;;7.03;3.20;;;;;;;;;;4963378;28;20633;-72
2023/10/17 16:45:22;;;;;;;3.63;2.70;;;;;;;;;;4955711;28;20046;-72
2023/10/17 16:47:50;;;;;;;3.05;2.40;;;;;;;;;;4959965;28;20046;-72
2023/10/17 16:50:17;;;;;;;3.75;2.75;;;;;;;;;;4956468;28;20093;-72
2023/10/17 16:52:44;;;;;;;2.28;2.08;;;;;;;;;;4936011;28;20043;-72
2023/10/17 16:55:12;;;;;;;5.18;2.80;;;;;;;;;;4968120;28;20032;-72
2023/10/17 16:57:39;;;;;;;6.00;2.90;;;;;;;;;;4961952;28;20040;-72
2023/10/17 17:00:16;;;;;;;5.18;3.40;;;;;;;;;;4962414;28;20060;-72
2023/10/17 17:02:43;;;;;;;6.45;3.20;;;;;;;;;;4966255;28;20077;-72
2023/10/17 17:05:10;;;;;;;3.53;2.17;;;;;;;;;;4972427;28;20045;-72
2023/10/17 17:07:39;;;;;;;5.72;3.60;;;;;;;;;;4959421;28;20849;-72
2023/10/17 17:10:14;;;;;;;3.55;2.63;;;;;;;;;;4951876;28;20348;-72
2023/10/17 17:12:41;;;;;;;4.07;2.90;;;;;;;;;;4932626;28;20047;-72
2023/10/17 17:15:07;;;;;;;7.38;3.80;;;;;;;;;;4940579;28;20043;-72
2023/10/17 17:17:33;;;;;;;3.00;2.30;;;;;;;;;;4971548;28;20050;-72
2023/10/17 17:19:58;;;;;;;2.67;2.08;;;;;;;;;;4951794;28;20035;-72